Destrehan, Louisiana
Current Conditions -  °F | °C
As of 8:53 AM on Saturday 20 Dec 2014 (Local Time) from KMSY Reporting Station
Overcast Overcast  
Wind Chill: 51°   Ceiling: 800
Heat Index: 51°   Visibility: 10mi
Dew Point: 48°   Wind: 14mph
Humidity: 89%   Direction: 30°NNE
Pressure: 30.15"   Gusts: NA
Location:  29.95°N, 90.39°W
Report Text: KMSY 201453Z 03012KT 10SM OVC008 11/09 A3015 RMK AO2 SLP211 T01060089 53016
Loading
Personal Weather Stations






























Interactive Weather Map New forecast layout! Learn more

10-Day Weather Forecast

Advertisements
Track Severe Weather on mobile